Country
Station

 

Weather  for  Guymon/Guymon Municipal Airport  -  United States    United States

  
25 °C (77 °F)
    
 
 

Current METAR for Guymon/Guymon Municipal Airport is :

KGUY 191453Z AUTO 20015G22KT 10SM CLR 25/17 A2992 RMK AO2 SLP084 T02500172 50001

 

This is a report for Guymon/Guymon Municipal Airport - United States.
 
The report was made 47 minutes ago, at 14:53 UTC .
The wind was blowing at a speed of 7.7 meters per second (17.3 miles per hour) with gusts up to 11.3 meters per second (25.3 miles per hour) from south/southwest (200°).
 
The temperature was 25 °C (77 °F), with a dew-point at 17 °C (63 °F).
The temperature felt like 26 °C (79 °F).
 
The atmospheric pressure was 1013 hPa (29.92 inHg).
The relative humidity was 61.2%.
 
The sky was clear.
 
The overall visibility was 16.1 kilometers (10.0 miles).
 

 
 
 
 

Country :   A   B   C   D   E   F   G   H   I   J   K   L   M   N   O   P   Q   R   S   T   U   V   W   Y   Z

 

Site Info  |  Disclaimer  |  Credits  |  Privacy
Contact us  |  Add to favorites
© 2013-2018 METARs - All rights reserved